Terminal Aerodrome Forecast
Issued by NWS

Home | Current Version | Previous Version | Text Only | Print | Product List | Glossary Off
Versions: 1 2 3 4 5 6 7 8 9 10 11 12 13 14 15 16 17

000
FTUS42 KMHX 271500 AAC
TAFPGV
TAF AMD
KPGV 271508Z 2715/2812 01009KT P6SM SCT040
      TEMPO 2715/2716 5SM BR BKN015
     FM272300 02005KT P6SM SKC
      AMD LTD TO CLD VIS AND WIND=

USA.gov is the U.S. government's official web portal to all federal, state and local government web resources and services.